Portada
METAR-TAF:

METAR-TAF

Aeroports :

Maiduguri, Nigèria

latitud: 11-51N, longitud: 013-05E, altitud: 354 m

Observació

L'informe es va fer fa 19 hores i 56 minuts, a les 10:00 UTC
Vent 5 kt del Est
Temperatura 23°C
Humitat 33%
Pressió 1019 hPa
Visibilitat 10 km o més
sense núvols per sota de 1500 mi sense presència de cumulonimbus.

METAR: DNMA 201000Z 09005KT CAVOK 23/06 Q1019

Hora: 06:56 (05:56 UTC)

Pronòstic

L'informe es va fer fa 56 minuts, a les 05:00 UTC
Pronòstic vàlid del 21 a les 06 UTC al 22 a les 12 UTC
Vent 12 kt del Nord-Est
Visibilitat: 3000 m
calitja
Temporalment
l' 21 a les 06 UTC al 21 a les 12 UTC
Visibilitat: 1500 m

TAF: DNMA 210500Z 2106/2212 05012KT 3000 HZ NSC TEMPO 2106/2112 1500

Observacions i pronòstics meteorològics de més de 4000 aeroports (METAR i TAF).

Les estacions disponibles són els punts grocs i vermells al mapa.

Posi el ratolí al punt desitjat per veure el nom de l'estació.

Feu clic per veure les observacions i els pronòstics meteorològics.

Per canviar el mapa: feu clic els botons verds amb una creu de color negre per apropar; al botó verd amb un guió per allunyar la imatge; o en les fletxes verdes per a mapes adjacents.


METAR-TAF: